Time;durP1;ratioP1;P1;durP2;ratioP2;P2;SDS_P1;SDS_P2;PMS_P1;PMS_P2;Temp;Humidity;BMP_temperature;BMP_pressure;BME280_temperature;BME280_humidity;BME280_pressure;Samples;Min_cycle;Max_cycle;Signal;HPM_P1;HPM_P2
2020/12/17 00:00:20;;;;;;;117.45;23.58;;;;;;;2.12;100.00;96800.22;4943267;28;26005;-55
2020/12/17 00:02:48;;;;;;;69.82;18.80;;;;;;;2.01;100.00;96800.81;5001353;28;20043;-53
2020/12/17 00:05:15;;;;;;;90.95;21.90;;;;;;;2.08;100.00;96809.13;4953354;28;20540;-55
2020/12/17 00:07:43;;;;;;;75.13;21.45;;;;;;;2.03;100.00;96816.31;4973353;28;20735;-56
2020/12/17 00:10:12;;;;;;;77.30;22.05;;;;;;;2.04;100.00;96802.44;4956241;28;20054;-52
2020/12/17 00:12:41;;;;;;;143.07;23.70;;;;;;;2.10;100.00;96805.53;4957269;28;20056;-51
2020/12/17 00:15:11;;;;;;;88.85;21.75;;;;;;;2.10;100.00;96813.34;4985927;28;20050;-47
2020/12/17 00:17:41;;;;;;;95.05;23.02;;;;;;;2.08;100.00;96806.53;4934965;28;20502;-53
2020/12/17 00:20:08;;;;;;;;;;;;;;;2.10;100.00;96810.72;4986397;28;20126;-52
2020/12/17 00:22:35;;;;;;;75.82;21.05;;;;;;;2.04;100.00;96805.03;4947525;28;20296;-51
2020/12/17 00:25:03;;;;;;;97.43;21.38;;;;;;;2.16;100.00;96806.94;4986708;28;20132;-49
2020/12/17 00:27:30;;;;;;;84.97;20.75;;;;;;;2.19;100.00;96808.53;4955278;28;20046;-56
2020/12/17 00:29:57;;;;;;;99.97;21.05;;;;;;;2.16;100.00;96812.13;4988756;28;20133;-57
2020/12/17 00:32:26;;;;;;;149.60;22.85;;;;;;;2.18;100.00;96818.09;4958775;28;20476;-52
2020/12/17 00:34:52;;;;;;;91.68;22.17;;;;;;;2.20;100.00;96821.44;4991444;28;20421;-52
2020/12/17 00:37:20;;;;;;;174.25;25.02;;;;;;;2.07;100.00;96823.91;4937714;28;20061;-53
2020/12/17 00:39:47;;;;;;;124.07;22.67;;;;;;;2.14;100.00;96822.66;4987219;28;20047;-56
2020/12/17 00:42:14;;;;;;;241.68;26.55;;;;;;;2.08;100.00;96820.38;4945724;28;20097;-57
2020/12/17 00:44:41;;;;;;;218.82;26.75;;;;;;;2.10;100.00;96820.31;4989161;28;20046;-53
2020/12/17 00:47:08;;;;;;;147.10;23.83;;;;;;;2.05;100.00;96817.09;4960808;28;20528;-53
2020/12/17 00:49:35;;;;;;;155.48;24.20;;;;;;;2.02;100.00;96804.25;4990430;28;20073;-55
2020/12/17 00:52:02;;;;;;;125.65;22.48;;;;;;;1.99;100.00;96813.06;4977444;28;20058;-53
2020/12/17 00:54:29;;;;;;;169.65;27.23;;;;;;;2.01;100.00;96807.78;4989681;28;20042;-53
2020/12/17 00:56:57;;;;;;;156.55;24.88;;;;;;;2.02;100.00;96796.44;4987029;28;20122;-51
2020/12/17 00:59:24;;;;;;;103.32;21.38;;;;;;;2.04;100.00;96797.22;4970224;28;20050;-56
2020/12/17 01:01:51;;;;;;;94.07;20.75;;;;;;;1.95;100.00;96795.09;4989134;28;20038;-55
2020/12/17 01:04:18;;;;;;;56.25;16.10;;;;;;;1.88;100.00;96795.44;4947442;28;20046;-51
2020/12/17 01:06:46;;;;;;;136.77;23.75;;;;;;;1.88;100.00;96800.63;4987784;28;20038;-54
2020/12/17 01:09:14;;;;;;;74.72;19.02;;;;;;;1.90;100.00;96800.56;4956731;28;20038;-55
2020/12/17 01:11:41;;;;;;;114.18;22.30;;;;;;;1.90;100.00;96797.97;4992369;28;20078;-55
2020/12/17 01:14:09;;;;;;;89.93;20.92;;;;;;;1.87;100.00;96798.13;4958340;28;20543;-54
2020/12/17 01:16:36;;;;;;;126.00;22.10;;;;;;;1.95;100.00;96800.31;4978554;28;20054;-58
2020/12/17 01:19:04;;;;;;;127.78;21.73;;;;;;;1.96;100.00;96805.44;4949759;28;20166;-56
2020/12/17 01:21:32;;;;;;;101.07;21.65;;;;;;;1.85;100.00;96807.75;4988668;28;20125;-55
2020/12/17 01:24:00;;;;;;;55.88;16.58;;;;;;;1.88;100.00;96816.25;4943530;28;20073;-54
2020/12/17 01:26:27;;;;;;;59.35;15.60;;;;;;;1.91;100.00;96825.66;4989314;28;20046;-49
2020/12/17 01:28:54;;;;;;;65.93;17.73;;;;;;;1.90;100.00;96817.00;4956602;28;20059;-50
2020/12/17 01:31:22;;;;;;;80.95;21.80;;;;;;;1.87;100.00;96811.97;4985395;28;20039;-49
2020/12/17 01:33:49;;;;;;;76.35;18.27;;;;;;;1.85;100.00;96825.97;4941225;28;20081;-47
2020/12/17 01:36:16;;;;;;;45.70;15.02;;;;;;;1.90;100.00;96817.00;4992484;28;20054;-47
2020/12/17 01:38:44;;;;;;;66.22;17.77;;;;;;;1.89;100.00;96809.28;4957176;28;20474;-54
2020/12/17 01:41:14;;;;;;;81.40;18.83;;;;;;;1.83;100.00;96807.88;4989979;28;20054;-57
2020/12/17 01:43:43;;;;;;;57.03;15.38;;;;;;;1.84;100.00;96811.28;4998183;28;20054;-52
2020/12/17 01:46:11;;;;;;;73.32;18.90;;;;;;;1.95;100.00;96802.91;4944548;28;20098;-52
2020/12/17 01:48:40;;;;;;;76.13;18.38;;;;;;;1.93;100.00;96804.75;4981999;28;20038;-52
2020/12/17 01:51:08;;;;;;;56.38;17.02;;;;;;;1.89;100.00;96804.94;4961819;28;20042;-56
2020/12/17 01:53:37;;;;;;;54.33;15.98;;;;;;;1.85;100.00;96807.75;4999544;28;20104;-53
2020/12/17 01:56:07;;;;;;;57.08;16.95;;;;;;;1.89;100.00;96815.34;4964435;28;20050;-52
2020/12/17 01:58:40;;;;;;;57.83;15.80;;;;;;;1.83;100.00;96820.88;4974426;28;20046;-51
2020/12/17 02:01:08;;;;;;;49.05;14.80;;;;;;;1.74;100.00;96821.34;4934430;28;20074;-55
2020/12/17 02:03:36;;;;;;;40.67;13.55;;;;;;;1.81;100.00;96827.91;4972954;28;20042;-57
2020/12/17 02:06:03;;;;;;;43.63;13.63;;;;;;;1.81;100.00;96829.66;4939047;28;20105;-54
2020/12/17 02:08:36;;;;;;;44.50;14.75;;;;;;;1.90;100.00;96834.38;4970857;28;20061;-49
2020/12/17 02:11:03;;;;;;;43.03;13.90;;;;;;;1.82;100.00;96834.75;4952613;28;20120;-52
2020/12/17 02:13:33;;;;;;;44.20;14.82;;;;;;;1.92;100.00;96832.50;4987446;28;20129;-51
2020/12/17 02:16:02;;;;;;;48.10;14.05;;;;;;;1.92;100.00;96829.91;4963228;28;20100;-52
2020/12/17 02:18:28;;;;;;;46.95;14.48;;;;;;;1.84;100.00;96826.91;4996002;28;20409;-51
2020/12/17 02:20:55;;;;;;;47.33;14.05;;;;;;;1.88;100.00;96824.03;4943686;28;20042;-52
2020/12/17 02:23:23;;;;;;;39.35;13.65;;;;;;;1.83;100.00;96826.06;4968555;28;20720;-51
2020/12/17 02:25:52;;;;;;;43.35;14.25;;;;;;;1.81;100.00;96825.28;4927816;28;22686;-51
2020/12/17 02:28:20;;;;;;;41.92;13.45;;;;;;;1.77;100.00;96830.75;4978328;28;20093;-50
2020/12/17 02:30:47;;;;;;;40.83;14.93;;;;;;;1.79;100.00;96829.75;4957809;28;20447;-50
2020/12/17 02:33:14;;;;;;;61.55;16.40;;;;;;;1.82;100.00;96832.16;4988925;28;20051;-51
2020/12/17 02:35:43;;;;;;;40.92;14.00;;;;;;;1.90;100.00;96826.56;4981257;28;20397;-48
2020/12/17 02:38:11;;;;;;;63.50;17.33;;;;;;;1.81;100.00;96829.66;4957299;28;20133;-48
2020/12/17 02:40:38;;;;;;;39.45;13.73;;;;;;;1.76;100.00;96823.88;4988291;28;20104;-51
2020/12/17 02:43:08;;;;;;;35.40;13.77;;;;;;;1.75;100.00;96816.97;4949786;28;20064;-54
2020/12/17 02:45:35;;;;;;;34.75;12.65;;;;;;;1.72;100.00;96828.41;4988331;28;20042;-49
2020/12/17 02:48:02;;;;;;;55.35;16.02;;;;;;;1.80;100.00;96817.59;4944024;28;20070;-49
2020/12/17 02:50:29;;;;;;;48.35;14.68;;;;;;;1.81;100.00;96816.66;4988456;28;20070;-48
2020/12/17 02:52:56;;;;;;;37.13;13.35;;;;;;;1.75;100.00;96819.56;4952603;28;20173;-48
2020/12/17 02:55:23;;;;;;;52.35;15.13;;;;;;;1.74;100.00;96821.34;4987031;28;20046;-50
2020/12/17 02:57:49;;;;;;;35.08;12.50;;;;;;;1.78;100.00;96822.03;4961442;28;20073;-54
2020/12/17 03:00:17;;;;;;;47.75;14.63;;;;;;;1.77;100.00;96835.94;4989016;28;20501;-49
2020/12/17 03:02:44;;;;;;;53.60;15.35;;;;;;;1.81;100.00;96830.50;4946968;28;20046;-55
2020/12/17 03:05:11;;;;;;;35.90;13.52;;;;;;;2.00;100.00;96842.53;4986874;28;20046;-49
2020/12/17 03:07:38;;;;;;;46.08;13.48;;;;;;;1.88;100.00;96839.66;4947283;28;20108;-52
2020/12/17 03:10:05;;;;;;;41.25;13.73;;;;;;;1.83;100.00;96851.22;4984661;28;20043;-51
2020/12/17 03:12:32;;;;;;;36.22;13.32;;;;;;;1.93;100.00;96841.16;4955295;28;20094;-47
2020/12/17 03:14:59;;;;;;;47.13;14.38;;;;;;;1.93;100.00;96852.41;4980932;28;20034;-54
2020/12/17 03:17:27;;;;;;;41.53;14.40;;;;;;;1.97;100.00;96847.91;4959611;28;20599;-50
2020/12/17 03:19:55;;;;;;;43.58;13.70;;;;;;;2.04;100.00;96854.44;4981704;28;20043;-50
2020/12/17 03:22:22;;;;;;;55.65;14.27;;;;;;;2.15;100.00;96857.28;4975212;28;20523;-52
2020/12/17 03:24:49;;;;;;;57.10;14.85;;;;;;;2.18;100.00;96854.53;4928739;28;20544;-52
2020/12/17 03:27:16;;;;;;;38.88;14.68;;;;;;;2.08;100.00;96856.78;4986833;28;20097;-48
2020/12/17 03:29:44;;;;;;;48.15;14.70;;;;;;;2.13;100.00;96849.59;4946045;28;20517;-51
2020/12/17 03:32:11;;;;;;;44.22;13.63;;;;;;;2.06;100.00;96845.63;4984126;28;20069;-51
2020/12/17 03:34:39;;;;;;;52.03;14.50;;;;;;;2.09;100.00;96845.44;4954354;28;20583;-52
2020/12/17 03:37:08;;;;;;;44.55;13.50;;;;;;;2.10;100.00;96841.13;4980710;28;20042;-53
2020/12/17 03:39:35;;;;;;;33.88;11.57;;;;;;;2.12;100.00;96832.28;4945376;28;20046;-49
2020/12/17 03:42:02;;;;;;;64.68;16.13;;;;;;;2.03;100.00;96831.94;4963462;28;20113;-52
2020/12/17 03:44:29;;;;;;;40.17;13.40;;;;;;;2.04;100.00;96826.66;4950581;28;20046;-54
2020/12/17 03:46:56;;;;;;;44.42;13.20;;;;;;;2.04;100.00;96818.88;4982956;28;20077;-49
2020/12/17 03:49:23;;;;;;;36.25;12.65;;;;;;;1.98;100.00;96824.38;4949361;28;20042;-53
2020/12/17 03:51:51;;;;;;;35.38;11.98;;;;;;;1.99;100.00;96815.66;4975623;28;20050;-54
2020/12/17 03:54:18;;;;;;;35.30;12.80;;;;;;;2.03;100.00;96827.59;4937349;28;20053;-52
2020/12/17 03:56:45;;;;;;;49.67;13.98;;;;;;;2.07;100.00;96836.06;4967411;28;20051;-51
2020/12/17 03:59:12;;;;;;;53.53;15.23;;;;;;;1.84;100.00;96829.50;4953403;28;20043;-53
2020/12/17 04:01:39;;;;;;;44.00;13.02;;;;;;;1.86;100.00;96831.09;4983976;28;20046;-53
2020/12/17 04:04:06;;;;;;;43.65;13.73;;;;;;;1.96;100.00;96828.84;4985911;28;20047;-51
2020/12/17 04:06:33;;;;;;;61.55;14.25;;;;;;;2.07;100.00;96838.69;4939959;28;20038;-49
2020/12/17 04:09:01;;;;;;;49.47;13.50;;;;;;;2.19;100.00;96845.78;4963938;28;20062;-54
2020/12/17 04:11:28;;;;;;;47.22;13.85;;;;;;;2.32;100.00;96844.19;4924624;28;20051;-55
2020/12/17 04:13:54;;;;;;;46.65;14.18;;;;;;;2.29;100.00;96846.97;4977793;28;20073;-53
2020/12/17 04:16:21;;;;;;;47.10;13.57;;;;;;;2.20;100.00;96849.22;4956996;28;20403;-52
2020/12/17 04:18:49;;;;;;;47.30;13.35;;;;;;;2.13;100.00;96844.38;4974146;28;20049;-51
2020/12/17 04:21:17;;;;;;;52.75;14.13;;;;;;;2.18;100.00;96856.31;4962147;28;20057;-52
2020/12/17 04:23:44;;;;;;;38.65;12.80;;;;;;;2.02;100.00;96849.31;4994024;28;20053;-53
2020/12/17 04:26:12;;;;;;;37.53;12.20;;;;;;;2.14;100.00;96860.84;4956652;28;20074;-56
2020/12/17 04:28:40;;;;;;;46.85;12.38;;;;;;;2.21;100.00;96874.34;4987912;28;20046;-53
2020/12/17 04:31:07;;;;;;;49.63;13.52;;;;;;;2.16;100.00;96871.97;4947413;28;20080;-51
2020/12/17 04:33:34;;;;;;;47.83;13.13;;;;;;;2.26;100.00;96867.94;4990681;28;20046;-49
2020/12/17 04:36:01;;;;;;;35.63;12.57;;;;;;;2.40;100.00;96871.56;4951096;28;20039;-50
2020/12/17 04:38:29;;;;;;;28.95;11.55;;;;;;;2.51;100.00;96864.88;4999295;28;20456;-51
2020/12/17 04:40:56;;;;;;;25.92;10.50;;;;;;;2.50;100.00;96870.13;4959117;28;23224;-50
2020/12/17 04:43:24;;;;;;;24.13;10.05;;;;;;;2.43;100.00;96872.25;4998199;28;20146;-50
2020/12/17 04:45:52;;;;;;;33.00;10.90;;;;;;;2.33;100.00;96878.88;4962245;28;20100;-49
2020/12/17 04:48:21;;;;;;;23.38;10.07;;;;;;;2.22;100.00;96881.22;4983178;28;20133;-50
2020/12/17 04:50:48;;;;;;;29.10;9.70;;;;;;;2.43;100.00;96877.44;4990223;28;20117;-51
2020/12/17 04:53:15;;;;;;;33.55;10.50;;;;;;;2.35;100.00;96883.06;4941111;28;20528;-51
2020/12/17 04:55:43;;;;;;;34.22;11.18;;;;;;;2.43;100.00;96887.84;4988568;28;20045;-51
2020/12/17 04:58:11;;;;;;;26.15;10.60;;;;;;;2.54;100.00;96895.91;4949811;28;20046;-54
2020/12/17 05:00:41;;;;;;;21.98;9.68;;;;;;;2.57;100.00;96893.13;4964407;28;20043;-50
2020/12/17 05:03:13;;;;;;;24.77;10.35;;;;;;;2.41;100.00;96892.31;4938942;28;20047;-50
2020/12/17 05:05:40;;;;;;;24.58;10.15;;;;;;;2.49;100.00;96897.09;4972237;28;20050;-52
2020/12/17 05:08:07;;;;;;;18.70;8.98;;;;;;;2.37;100.00;96891.66;4932777;28;20038;-53
2020/12/17 05:10:34;;;;;;;24.60;10.07;;;;;;;2.53;100.00;96894.22;4969657;28;20548;-50
2020/12/17 05:13:01;;;;;;;20.05;8.95;;;;;;;2.68;100.00;96884.72;4930056;28;20138;-58
2020/12/17 05:15:28;;;;;;;28.55;10.73;;;;;;;2.76;100.00;96892.97;4974200;28;20042;-50
2020/12/17 05:17:59;;;;;;;32.97;10.40;;;;;;;2.49;100.00;96892.72;4956464;28;20101;-52
2020/12/17 05:20:27;;;;;;;36.65;10.63;;;;;;;2.36;100.00;96889.13;4971205;28;21216;-49
2020/12/17 05:22:53;;;;;;;29.45;10.43;;;;;;;2.18;100.00;96882.31;4937365;28;20042;-50
2020/12/17 05:25:21;;;;;;;38.50;11.27;;;;;;;2.19;100.00;96881.38;4980084;28;20087;-54
2020/12/17 05:27:49;;;;;;;46.25;11.48;;;;;;;2.19;100.00;96878.78;4953362;28;20053;-54
2020/12/17 05:30:16;;;;;;;35.00;10.50;;;;;;;2.20;100.00;96877.84;4989460;28;20046;-55
2020/12/17 05:32:44;;;;;;;33.50;11.00;;;;;;;2.25;100.00;96888.88;4954448;28;20050;-52
2020/12/17 05:35:16;;;;;;;37.30;11.05;;;;;;;2.44;100.00;96894.72;4985201;28;20043;-54
2020/12/17 05:37:43;;;;;;;31.83;10.40;;;;;;;2.52;100.00;96896.94;4977742;28;20046;-53
2020/12/17 05:40:12;;;;;;;26.48;10.07;;;;;;;2.52;100.00;96904.75;4958080;28;20053;-53
2020/12/17 05:42:41;;;;;;;35.15;10.77;;;;;;;2.38;100.00;96900.28;4985727;28;20047;-52
2020/12/17 05:45:23;;;;;;;31.67;9.90;;;;;;;2.34;100.00;96906.56;4947342;28;20498;-53
2020/12/17 05:48:11;;;;;;;33.38;10.05;;;;;;;2.59;100.00;96906.09;4990258;28;20065;-50
2020/12/17 05:50:50;;;;;;;41.42;11.13;;;;;;;2.39;100.00;96907.16;4938757;28;20054;-49
2020/12/17 05:53:17;;;;;;;34.47;10.65;;;;;;;2.38;100.00;96911.53;4997865;28;20137;-51
2020/12/17 05:55:44;;;;;;;31.20;10.90;;;;;;;2.51;100.00;96916.94;4950248;28;20034;-51
2020/12/17 05:58:13;;;;;;;34.22;10.68;;;;;;;2.50;100.00;96923.03;4982363;28;20046;-52
2020/12/17 06:00:40;;;;;;;26.48;9.52;;;;;;;2.28;100.00;96927.75;4941548;28;20045;-54
2020/12/17 06:03:10;;;;;;;29.67;9.40;;;;;;;2.40;100.00;96926.22;4987394;28;20042;-57
2020/12/17 06:05:42;;;;;;;;;;;;;;;2.20;100.00;96932.50;4937599;28;20094;-48
2020/12/17 06:08:15;;;;;;;27.70;9.65;;;;;;;2.02;100.00;96937.75;4986431;28;20643;-54
2020/12/17 06:10:47;;;;;;;23.88;9.90;;;;;;;2.05;100.00;96936.75;4946954;28;20070;-51
2020/12/17 06:13:16;;;;;;;21.00;8.75;;;;;;;2.00;100.00;96933.56;4990270;28;20525;-50
2020/12/17 06:15:45;;;;;;;34.97;9.80;;;;;;;2.12;100.00;96932.91;4950415;28;20145;-52
2020/12/17 06:18:13;;;;;;;32.95;10.48;;;;;;;2.13;100.00;96929.38;4998463;28;20049;-53
2020/12/17 06:20:43;;;;;;;36.45;11.13;;;;;;;1.96;100.00;96924.22;4952655;28;20156;-53
2020/12/17 06:23:14;;;;;;;33.50;10.18;;;;;;;1.86;100.00;96929.91;4987857;28;20093;-54
2020/12/17 06:25:41;;;;;;;32.03;10.38;;;;;;;1.88;100.00;96933.25;4956143;28;20046;-53
2020/12/17 06:28:26;;;;;;;22.50;8.98;;;;;;;1.92;100.00;96935.72;4983349;28;20113;-50
2020/12/17 06:30:57;;;;;;;20.58;9.10;;;;;;;1.97;100.00;96936.31;4953156;28;20066;-49
2020/12/17 06:33:27;;;;;;;21.80;8.88;;;;;;;1.93;100.00;96947.78;4987146;28;20126;-50
2020/12/17 06:35:58;;;;;;;24.92;9.13;;;;;;;2.00;100.00;96946.56;4942900;28;20412;-52
2020/12/17 06:38:27;;;;;;;20.48;9.60;;;;;;;2.07;100.00;96948.75;4987901;28;20049;-53
2020/12/17 06:40:54;;;;;;;25.25;9.75;;;;;;;2.01;100.00;96946.47;4954547;28;20073;-54
2020/12/17 06:43:32;;;;;;;25.88;10.18;;;;;;;2.11;100.00;96947.69;4981903;28;20046;-48
2020/12/17 06:46:00;;;;;;;28.92;10.85;;;;;;;2.10;100.00;96950.38;4954512;28;20053;-50
2020/12/17 06:48:31;;;;;;;37.25;12.23;;;;;;;2.13;100.00;96952.78;4988339;28;20042;-54
2020/12/17 06:50:59;;;;;;;34.03;15.23;;;;;;;2.18;100.00;96958.59;4947319;28;20848;-52
2020/12/17 06:53:38;;;;;;;73.90;29.85;;;;;;;2.12;100.00;96959.75;4985380;28;20049;-51
2020/12/17 06:56:05;;;;;;;29.95;14.25;;;;;;;2.00;100.00;96956.97;4947035;28;20046;-48
2020/12/17 06:58:32;;;;;;;31.00;13.77;;;;;;;1.99;100.00;96963.06;4986697;28;20481;-51
2020/12/17 07:00:59;;;;;;;33.60;19.08;;;;;;;2.11;100.00;96967.66;4978963;28;20078;-52
2020/12/17 07:03:43;;;;;;;42.60;20.90;;;;;;;2.06;100.00;96978.28;4940002;28;20050;-53
2020/12/17 07:06:18;;;;;;;26.48;14.35;;;;;;;1.94;100.00;96980.69;4988029;28;20465;-53
2020/12/17 07:08:47;;;;;;;23.45;9.52;;;;;;;1.90;100.00;96980.84;4982059;28;20396;-51
2020/12/17 07:11:34;;;;;;;22.70;9.48;;;;;;;1.97;100.00;96983.13;4984816;28;20539;-52
2020/12/17 07:14:01;;;;;;;20.83;9.25;;;;;;;1.86;100.00;96991.50;4993095;28;20049;-51
2020/12/17 07:16:28;;;;;;;26.45;9.88;;;;;;;1.77;100.00;96999.75;4972191;28;20052;-55
2020/12/17 07:19:19;;;;;;;19.50;8.55;;;;;;;1.79;100.00;96997.91;4942674;28;20038;-53
2020/12/17 07:21:50;;;;;;;19.90;9.90;;;;;;;1.72;100.00;96999.13;4987828;28;20057;-51
2020/12/17 07:24:23;;;;;;;19.52;8.98;;;;;;;1.71;100.00;97011.28;4983388;28;20471;-50
2020/12/17 07:26:52;;;;;;;22.38;8.40;;;;;;;1.67;100.00;97012.38;4969611;28;20502;-54
2020/12/17 07:29:19;;;;;;;27.70;8.75;;;;;;;1.71;100.00;97015.66;4958565;28;20058;-54
2020/12/17 07:31:46;;;;;;;22.95;9.30;;;;;;;1.85;100.00;97016.63;4989452;28;20047;-51
2020/12/17 07:34:17;;;;;;;22.35;9.77;;;;;;;1.93;100.00;97013.66;4951835;28;20433;-52
2020/12/17 07:36:46;;;;;;;32.28;9.15;;;;;;;1.90;100.00;97024.22;4980563;28;20034;-56
2020/12/17 07:39:14;;;;;;;23.17;9.98;;;;;;;1.93;100.00;97021.47;4952606;28;20096;-55
2020/12/17 07:41:42;;;;;;;19.58;8.95;;;;;;;1.91;100.00;97015.50;4988436;28;20046;-52
2020/12/17 07:44:33;;;;;;;;;;;;;;;1.90;100.00;97008.63;4953307;28;20050;-57
2020/12/17 07:47:18;;;;;;;15.48;7.70;;;;;;;1.97;100.00;97012.59;4987071;28;20407;-50
2020/12/17 07:49:45;;;;;;;27.88;7.63;;;;;;;2.00;100.00;97016.78;4954536;28;20488;-50
2020/12/17 07:52:29;;;;;;;15.77;7.78;;;;;;;2.24;100.00;97022.50;4982879;28;20077;-51
2020/12/17 07:54:56;;;;;;;16.58;7.93;;;;;;;2.18;100.00;97023.66;4939750;28;20053;-54
2020/12/17 07:57:25;;;;;;;26.85;8.68;;;;;;;2.18;100.00;97026.25;5006813;28;20041;-52
2020/12/17 07:59:52;;;;;;;22.83;8.15;;;;;;;2.25;100.00;97029.38;4952084;28;20635;-51
2020/12/17 08:02:19;;;;;;;20.95;8.30;;;;;;;2.21;100.00;97039.09;4998341;28;20038;-52
2020/12/17 08:04:47;;;;;;;38.95;8.40;;;;;;;2.37;100.00;97031.31;4958557;28;20034;-51
2020/12/17 08:07:14;;;;;;;21.05;7.93;;;;;;;2.46;100.00;97032.63;4990988;28;20130;-52
2020/12/17 08:09:42;;;;;;;24.75;8.23;;;;;;;2.45;100.00;97033.56;4958530;28;20502;-50
2020/12/17 08:12:11;;;;;;;22.35;8.05;;;;;;;2.48;100.00;97023.81;4987386;28;20046;-54
2020/12/17 08:14:39;;;;;;;16.63;7.15;;;;;;;2.62;100.00;97030.91;4952368;28;20034;-54
2020/12/17 08:17:07;;;;;;;20.85;7.90;;;;;;;2.50;100.00;97036.72;4987180;28;20445;-55
2020/12/17 08:19:36;;;;;;;12.07;6.50;;;;;;;2.40;100.00;97044.19;4942205;28;20037;-50
2020/12/17 08:22:04;;;;;;;20.77;7.80;;;;;;;2.32;100.00;97041.97;4988422;28;20034;-56
2020/12/17 08:24:32;;;;;;;17.73;7.22;;;;;;;2.29;100.00;97047.34;4957900;28;20065;-54
2020/12/17 08:27:00;;;;;;;19.33;7.53;;;;;;;2.37;100.00;97049.53;4987943;28;20085;-54
2020/12/17 08:29:27;;;;;;;18.52;6.80;;;;;;;2.31;100.00;97049.88;4986640;28;20038;-57
2020/12/17 08:31:55;;;;;;;14.50;7.63;;;;;;;2.34;100.00;97047.97;4960773;28;20082;-48
2020/12/17 08:34:23;;;;;;;12.27;6.78;;;;;;;2.25;100.00;97050.19;4977146;28;20057;-50
2020/12/17 08:36:50;;;;;;;17.58;7.80;;;;;;;2.43;100.00;97056.19;4937874;28;20050;-56
2020/12/17 08:39:21;;;;;;;17.55;7.45;;;;;;;2.54;100.00;97056.47;4970375;28;20050;-52
2020/12/17 08:41:52;;;;;;;23.33;8.00;;;;;;;2.61;100.00;97058.69;4982350;28;20042;-51
2020/12/17 08:44:23;;;;;;;18.08;7.43;;;;;;;2.57;100.00;97067.56;4990974;28;20077;-57
2020/12/17 08:46:56;;;;;;;22.08;8.00;;;;;;;2.52;100.00;97063.53;4951571;28;20112;-52
2020/12/17 08:49:25;;;;;;;17.08;8.02;;;;;;;2.44;100.00;97070.88;4991287;28;20084;-53
2020/12/17 08:51:54;;;;;;;21.23;9.03;;;;;;;2.56;100.00;97075.47;4963026;28;20100;-57
2020/12/17 08:54:25;;;;;;;19.15;8.55;;;;;;;2.62;100.00;97067.34;4988296;28;20447;-49
2020/12/17 08:56:59;;;;;;;18.13;7.82;;;;;;;2.82;100.00;97076.69;4957955;28;20054;-54
2020/12/17 08:59:29;;;;;;;13.90;7.95;;;;;;;2.79;100.00;97085.53;5005463;28;20065;-53
2020/12/17 09:02:03;;;;;;;16.52;7.20;;;;;;;2.76;100.00;97083.06;4977430;28;20038;-55
2020/12/17 09:04:33;;;;;;;18.75;8.38;;;;;;;2.77;100.00;97095.16;4990294;28;20038;-53
2020/12/17 09:07:04;;;;;;;14.43;8.23;;;;;;;2.99;100.00;97091.41;4964804;28;20539;-53
2020/12/17 09:09:34;;;;;;;15.93;7.78;;;;;;;2.93;100.00;97102.19;4972193;28;20468;-55
2020/12/17 09:12:07;;;;;;;15.30;8.23;;;;;;;2.83;100.00;97094.00;4946734;28;20043;-56
2020/12/17 09:14:36;;;;;;;19.48;8.32;;;;;;;2.98;100.00;97098.38;5001083;28;20042;-58
2020/12/17 09:17:15;;;;;;;17.90;8.43;;;;;;;3.15;100.00;97102.69;4971225;28;20039;-52
2020/12/17 09:19:45;;;;;;;19.05;8.32;;;;;;;3.12;100.00;97109.84;4987086;28;20603;-54
2020/12/17 09:22:19;;;;;;;19.77;8.10;;;;;;;3.17;100.00;97113.88;4934790;28;20056;-51
2020/12/17 09:24:54;;;;;;;25.75;8.73;;;;;;;2.90;100.00;97108.38;4988796;28;20385;-54
2020/12/17 09:27:22;;;;;;;22.90;8.63;;;;;;;2.65;100.00;97110.59;4958734;28;20170;-51
2020/12/17 09:30:17;;;;;;;25.80;8.57;;;;;;;2.70;100.00;97113.81;5014149;28;20038;-55
2020/12/17 09:32:52;;;;;;;18.80;8.27;;;;;;;2.75;100.00;97107.44;4912441;28;20141;-54
2020/12/17 09:35:20;;;;;;;13.80;8.25;;;;;;;3.14;100.00;97108.00;4989319;28;20097;-57
2020/12/17 09:37:56;;;;;;;22.90;8.93;;;;;;;3.08;100.00;97103.94;4944354;28;20054;-52
2020/12/17 09:40:24;;;;;;;15.45;8.45;;;;;;;3.17;100.00;97102.63;4975796;28;20522;-52
2020/12/17 09:43:02;;;;;;;18.35;9.75;;;;;;;3.45;100.00;97112.38;4948394;28;20137;-53
2020/12/17 09:45:33;;;;;;;13.55;8.07;;;;;;;3.09;100.00;97114.28;4989436;28;20038;-51
2020/12/17 09:48:00;;;;;;;;;;;;;;;3.10;100.00;97115.16;4954777;28;20524;-53
2020/12/17 09:50:27;;;;;;;15.15;8.57;;;;;;;3.54;100.00;97109.25;4987880;28;19921;-53
2020/12/17 09:52:54;;;;;;;17.77;8.43;;;;;;;3.36;100.00;97123.31;4959405;28;20050;-56
2020/12/17 09:55:21;;;;;;;17.92;9.95;;;;;;;3.63;100.00;97113.13;4974139;28;20596;-53
2020/12/17 09:57:49;;;;;;;14.52;8.15;;;;;;;3.52;100.00;97118.94;4975621;28;20126;-53
2020/12/17 10:00:17;;;;;;;15.85;8.48;;;;;;;3.42;100.00;97116.00;4944696;28;20133;-52
2020/12/17 10:06:04;;;;;;;14.77;8.05;;;;;;;3.05;100.00;97111.94;5007251;23;20043;-56
2020/12/17 10:08:31;;;;;;;15.48;9.15;;;;;;;3.01;100.00;97115.63;4961247;28;20113;-56
2020/12/17 10:10:59;;;;;;;13.82;8.23;;;;;;;2.99;100.00;97115.69;4988390;28;20049;-58
2020/12/17 10:13:26;;;;;;;14.75;8.75;;;;;;;3.08;100.00;97114.38;4986614;28;20039;-56
2020/12/17 10:15:53;;;;;;;14.45;8.35;;;;;;;3.06;100.00;97116.22;4950660;28;20580;-54
2020/12/17 10:18:20;;;;;;;15.32;9.27;;;;;;;3.48;100.00;97114.81;4966069;28;20046;-54
2020/12/17 10:20:49;;;;;;;18.77;10.23;;;;;;;3.49;100.00;97113.88;4930054;28;20512;-51
2020/12/17 10:23:17;;;;;;;16.02;9.50;;;;;;;3.47;100.00;97113.13;4967986;28;20039;-52
2020/12/17 10:25:44;;;;;;;12.82;8.10;;;;;;;3.84;100.00;97113.69;4926970;28;20513;-56
2020/12/17 10:28:12;;;;;;;14.07;8.52;;;;;;;4.31;100.00;97123.16;4968351;28;20050;-56
2020/12/17 10:30:39;;;;;;;14.07;8.27;;;;;;;4.28;100.00;97122.41;4933090;28;20038;-58
2020/12/17 10:33:06;;;;;;;13.65;8.50;;;;;;;4.34;100.00;97110.75;4970764;28;20043;-53
2020/12/17 10:35:33;;;;;;;13.18;8.50;;;;;;;4.45;100.00;97113.56;4930668;28;20050;-54
2020/12/17 10:38:00;;;;;;;13.43;8.40;;;;;;;4.29;100.00;97121.47;4966494;28;20046;-55
2020/12/17 10:40:28;;;;;;;13.70;7.85;;;;;;;4.00;100.00;97124.94;4936071;28;20039;-53
2020/12/17 10:42:58;;;;;;;13.98;8.57;;;;;;;3.88;100.00;97123.00;4960467;28;20043;-54
2020/12/17 10:45:25;;;;;;;14.23;9.15;;;;;;;4.36;100.00;97103.66;4910963;28;20148;-54
2020/12/17 10:47:52;;;;;;;12.63;7.90;;;;;;;3.88;100.00;97120.41;4969363;28;20425;-56
2020/12/17 10:50:19;;;;;;;11.20;6.80;;;;;;;3.95;100.00;97119.94;4935243;28;20180;-54
2020/12/17 10:52:47;;;;;;;13.20;7.57;;;;;;;3.83;100.00;97120.66;4954378;28;20103;-55
2020/12/17 10:55:14;;;;;;;14.73;7.97;;;;;;;4.46;100.00;97110.03;4938655;28;20109;-57
2020/12/17 10:57:44;;;;;;;13.23;8.30;;;;;;;4.21;100.00;97122.84;4962973;28;20541;-57
2020/12/17 11:00:11;;;;;;;17.55;11.02;;;;;;;4.19;100.00;97122.09;4966503;28;20100;-55
2020/12/17 11:02:42;;;;;;;14.35;9.20;;;;;;;4.37;100.00;97117.56;4938116;28;20508;-55
2020/12/17 11:05:10;;;;;;;12.80;7.82;;;;;;;4.31;100.00;97123.16;4976197;28;20483;-53
2020/12/17 11:07:37;;;;;;;12.32;8.00;;;;;;;4.34;100.00;97120.38;4926275;28;20390;-56
2020/12/17 11:10:04;;;;;;;14.77;8.30;;;;;;;4.18;100.00;97118.63;4964448;28;20055;-55
2020/12/17 11:12:32;;;;;;;11.88;7.82;;;;;;;4.05;100.00;97118.50;4930510;28;20046;-57
2020/12/17 11:14:59;;;;;;;14.35;8.57;;;;;;;4.29;100.00;97115.41;4973543;28;20046;-58
2020/12/17 11:17:26;;;;;;;12.05;7.95;;;;;;;4.25;100.00;97122.56;4935078;28;20088;-56
2020/12/17 11:19:53;;;;;;;13.88;8.40;;;;;;;4.53;100.00;97106.13;4967870;28;20041;-55
2020/12/17 11:22:21;;;;;;;13.48;8.77;;;;;;;4.78;98.82;97106.41;4931115;28;20035;-57
2020/12/17 11:24:48;;;;;;;12.95;8.45;;;;;;;4.61;99.80;97112.66;4960972;28;20447;-56
2020/12/17 11:27:14;;;;;;;14.10;8.55;;;;;;;4.50;99.81;97108.06;4935445;28;20129;-55
2020/12/17 11:29:41;;;;;;;11.05;7.75;;;;;;;4.39;100.00;97100.03;4971325;28;20074;-57
2020/12/17 11:32:09;;;;;;;11.52;7.70;;;;;;;5.14;98.66;97103.34;4931194;28;20105;-53